Riceton, Canada
Current Conditions -  °F | °C
As of 11:00 AM on Saturday 20 Dec 2014 (Local Time) from CYQR Reporting Station
Light Snow Light Snow  
Wind Chill: 11°   Ceiling: 2000
Heat Index: 23°   Visibility: 2.5mi
Dew Point: 23°   Wind: 13mph
Humidity: 100%   Direction: 120°ESE
Pressure: 29.75"   Gusts: NA
Location:  50.1°N, 104.32°W
Report Text: CYQR 201700Z 12011KT 2 1/2SM -SNPL BR SCT007 OVC020 M05/M05 A2975 RMK SF3SC5 SLP111
Loading
Personal Weather Stations






























Interactive Weather Map New forecast layout! Learn more

10-Day Weather Forecast

Advertisements
Track Severe Weather on mobile